Time;durP1;ratioP1;P1;durP2;ratioP2;P2;SDS_P1;SDS_P2;PMS_P1;PMS_P2;Temp;Humidity;BMP_temperature;BMP_pressure;BME280_temperature;BME280_humidity;BME280_pressure;Samples;Min_cycle;Max_cycle;Signal;HPM_P1;HPM_P2
2022/07/07 00:02:08;;;;;;;14.90;4.28;;;16.90;99.90;;;;;;5059266;28;20125;-69
2022/07/07 00:04:34;;;;;;;7.90;5.20;;;16.90;99.90;;;;;;5059002;28;20453;-70
2022/07/07 00:06:59;;;;;;;10.05;5.00;;;16.90;99.90;;;;;;5058406;28;20045;-70
2022/07/07 00:09:27;;;;;;;9.55;4.80;;;17.00;99.90;;;;;;5059350;28;20114;-70
2022/07/07 00:11:53;;;;;;;15.90;5.30;;;16.90;99.90;;;;;;5076310;28;20354;-70
2022/07/07 00:14:18;;;;;;;7.22;4.68;;;16.90;99.90;;;;;;5058451;28;20056;-70
2022/07/07 00:16:44;;;;;;;8.93;4.88;;;16.90;99.90;;;;;;5058281;28;20052;-70
2022/07/07 00:19:10;;;;;;;8.38;5.18;;;16.90;99.90;;;;;;5075576;28;20053;-70
2022/07/07 00:21:35;;;;;;;8.63;4.57;;;16.80;99.90;;;;;;5058221;28;20045;-70
2022/07/07 00:24:01;;;;;;;7.32;4.57;;;16.90;99.90;;;;;;5058661;28;20049;-70
2022/07/07 00:26:30;;;;;;;10.38;5.15;;;16.90;99.90;;;;;;5067077;28;20128;-70
2022/07/07 00:28:55;;;;;;;8.30;4.55;;;16.90;99.90;;;;;;5078886;28;20056;-70
2022/07/07 00:31:21;;;;;;;9.13;4.72;;;16.80;99.90;;;;;;5078267;28;20452;-70
2022/07/07 00:33:46;;;;;;;11.05;4.60;;;16.90;99.90;;;;;;5096244;28;20044;-69
2022/07/07 00:36:12;;;;;;;10.45;4.68;;;16.80;99.90;;;;;;5077780;28;20036;-70
2022/07/07 00:38:38;;;;;;;8.15;4.78;;;16.90;99.90;;;;;;5078195;28;20516;-70
2022/07/07 00:41:03;;;;;;;8.68;5.25;;;16.80;99.90;;;;;;5070192;28;20045;-69
2022/07/07 00:43:39;;;;;;;9.73;4.32;;;16.80;99.90;;;;;;5058298;28;20392;-70
2022/07/07 00:46:06;;;;;;;7.45;4.45;;;16.80;99.90;;;;;;5058227;28;20059;-70
2022/07/07 00:48:37;;;;;;;6.47;4.15;;;16.80;99.90;;;;;;5075560;28;20464;-70
2022/07/07 00:51:09;;;;;;;8.68;4.47;;;16.80;99.90;;;;;;5075292;28;20053;-70
2022/07/07 00:53:36;;;;;;;6.70;4.30;;;16.80;99.90;;;;;;5057762;28;20114;-70
2022/07/07 00:56:01;;;;;;;8.23;4.55;;;16.80;99.90;;;;;;5074525;28;20037;-70
2022/07/07 00:58:27;;;;;;;8.27;4.35;;;16.70;99.90;;;;;;5075531;28;20048;-70
2022/07/07 01:00:53;;;;;;;8.00;3.92;;;16.80;99.90;;;;;;5058034;28;20059;-70
2022/07/07 01:03:19;;;;;;;8.50;3.80;;;16.80;99.90;;;;;;5075096;28;20376;-70
2022/07/07 01:05:48;;;;;;;12.63;4.82;;;16.80;99.90;;;;;;5075161;28;20460;-70
2022/07/07 01:08:15;;;;;;;8.48;4.22;;;16.80;99.90;;;;;;5075156;28;20075;-69
2022/07/07 01:10:42;;;;;;;8.57;3.35;;;16.80;99.90;;;;;;5081255;28;20048;-70
2022/07/07 01:13:07;;;;;;;4.25;2.80;;;16.70;99.90;;;;;;5073127;28;20040;-70
2022/07/07 01:15:33;;;;;;;7.53;3.60;;;16.90;99.90;;;;;;5040932;28;20081;-70
2022/07/07 01:17:59;;;;;;;7.28;3.38;;;16.70;99.90;;;;;;5057418;28;20044;-70
2022/07/07 01:20:26;;;;;;;5.43;2.75;;;16.70;99.90;;;;;;5057365;28;20048;-70
2022/07/07 01:22:53;;;;;;;5.97;3.70;;;16.80;99.90;;;;;;5057503;28;20040;-71
2022/07/07 01:25:19;;;;;;;6.18;3.33;;;16.70;99.90;;;;;;5075094;28;20076;-70
2022/07/07 01:27:44;;;;;;;5.50;2.95;;;16.70;99.90;;;;;;5057206;28;20137;-70
2022/07/07 01:30:11;;;;;;;4.35;2.65;;;16.60;99.90;;;;;;5057355;28;20036;-70
2022/07/07 01:32:37;;;;;;;5.50;2.08;;;16.60;99.90;;;;;;5057300;28;20056;-70
2022/07/07 01:35:03;;;;;;;4.75;2.38;;;16.60;99.90;;;;;;5058172;28;20093;-70
2022/07/07 01:37:29;;;;;;;4.00;2.10;;;16.60;99.90;;;;;;5075179;28;20105;-70
2022/07/07 01:39:55;;;;;;;5.68;2.10;;;16.60;99.90;;;;;;5056572;28;20453;-69
2022/07/07 01:42:21;;;;;;;4.88;2.20;;;16.60;99.90;;;;;;5075720;28;20055;-70
2022/07/07 01:44:50;;;;;;;3.75;2.28;;;16.60;99.90;;;;;;5075088;28;20041;-70
2022/07/07 01:47:17;;;;;;;4.60;2.00;;;16.60;99.90;;;;;;5059123;28;20055;-70
2022/07/07 01:49:43;;;;;;;7.25;2.38;;;16.60;99.90;;;;;;5078577;28;20445;-69
2022/07/07 01:52:08;;;;;;;8.77;2.28;;;16.50;99.90;;;;;;5061070;28;20105;-70
2022/07/07 01:54:35;;;;;;;5.43;2.22;;;16.50;99.90;;;;;;5061156;28;20053;-69
2022/07/07 01:57:02;;;;;;;4.45;2.20;;;16.50;99.90;;;;;;5061039;28;20448;-70
2022/07/07 01:59:28;;;;;;;5.97;2.38;;;16.50;99.90;;;;;;5080128;28;20059;-70
2022/07/07 02:01:54;;;;;;;5.43;2.00;;;16.50;99.90;;;;;;5078604;28;20052;-70
2022/07/07 02:04:19;;;;;;;4.85;2.13;;;16.50;99.90;;;;;;5061063;28;20048;-70
2022/07/07 02:06:45;;;;;;;6.57;2.15;;;16.50;99.90;;;;;;5044802;28;20153;-69
2022/07/07 02:09:11;;;;;;;4.05;2.00;;;16.40;99.90;;;;;;5060974;28;20334;-70
2022/07/07 02:11:36;;;;;;;6.53;2.30;;;16.50;99.90;;;;;;5078766;28;20127;-70
2022/07/07 02:14:03;;;;;;;6.43;2.40;;;16.50;99.90;;;;;;5063678;28;20097;-70
2022/07/07 02:16:28;;;;;;;5.18;1.90;;;16.50;99.90;;;;;;5060578;28;20354;-70
2022/07/07 02:19:02;;;;;;;4.13;1.98;;;16.50;99.90;;;;;;5078745;28;20109;-70
2022/07/07 02:21:28;;;;;;;4.60;2.22;;;16.50;99.90;;;;;;5078496;28;20040;-70
2022/07/07 02:23:57;;;;;;;7.85;2.30;;;16.50;99.90;;;;;;5061145;28;20424;-70
2022/07/07 02:26:23;;;;;;;6.47;2.70;;;16.50;99.90;;;;;;5078369;28;20044;-69
2022/07/07 02:28:48;;;;;;;6.68;2.35;;;16.50;99.90;;;;;;5066591;28;20463;-70
2022/07/07 02:31:14;;;;;;;6.63;3.03;;;16.50;99.90;;;;;;5080979;28;20048;-69
2022/07/07 02:33:40;;;;;;;9.98;2.70;;;16.50;99.90;;;;;;5081273;28;20055;-70
2022/07/07 02:36:07;;;;;;;7.88;3.10;;;16.40;99.90;;;;;;5080470;28;20083;-70
2022/07/07 02:38:33;;;;;;;8.23;2.42;;;16.50;99.90;;;;;;5097884;28;20044;-69
2022/07/07 02:40:59;;;;;;;5.35;2.20;;;16.50;99.90;;;;;;5080450;28;20063;-70
2022/07/07 02:43:26;;;;;;;6.80;2.45;;;16.50;99.90;;;;;;5084424;28;20044;-69
2022/07/07 02:45:52;;;;;;;6.05;2.60;;;16.50;99.90;;;;;;5060582;28;20078;-70
2022/07/07 02:48:25;;;;;;;8.88;2.60;;;16.50;99.90;;;;;;5059831;28;20071;-70
2022/07/07 02:50:51;;;;;;;5.95;2.40;;;16.50;99.90;;;;;;5077720;28;20135;-70
2022/07/07 02:53:18;;;;;;;8.10;2.78;;;16.40;99.90;;;;;;5077695;28;20092;-70
2022/07/07 02:55:44;;;;;;;6.10;2.17;;;16.50;99.90;;;;;;5077653;28;20135;-70
2022/07/07 02:58:20;;;;;;;6.95;2.42;;;16.50;99.90;;;;;;5061515;28;20096;-70
2022/07/07 03:00:50;;;;;;;7.72;2.40;;;16.50;99.90;;;;;;5080424;28;20063;-70
2022/07/07 03:03:16;;;;;;;9.18;2.17;;;16.40;99.90;;;;;;5097593;28;20422;-70
2022/07/07 03:05:42;;;;;;;7.85;2.40;;;16.40;99.90;;;;;;5080270;28;20048;-70
2022/07/07 03:08:09;;;;;;;6.78;2.28;;;16.40;99.90;;;;;;5080907;28;20373;-70
2022/07/07 03:10:34;;;;;;;5.05;2.45;;;16.40;99.90;;;;;;5079878;28;20139;-70
2022/07/07 03:13:00;;;;;;;5.40;2.03;;;16.40;99.90;;;;;;5094369;28;20115;-69
2022/07/07 03:15:25;;;;;;;4.50;1.90;;;16.40;99.90;;;;;;5059388;28;20084;-70
2022/07/07 03:17:52;;;;;;;7.13;2.28;;;16.30;99.90;;;;;;5059362;28;20055;-70
2022/07/07 03:20:18;;;;;;;11.07;2.10;;;16.40;99.90;;;;;;5077344;28;20463;-70
2022/07/07 03:22:44;;;;;;;3.90;1.90;;;16.30;99.90;;;;;;5059831;28;20080;-69
2022/07/07 03:25:10;;;;;;;8.35;1.90;;;16.30;99.90;;;;;;5059400;28;20451;-70
2022/07/07 03:27:37;;;;;;;7.40;2.00;;;16.30;99.90;;;;;;5077976;28;20453;-70
2022/07/07 03:30:04;;;;;;;3.67;2.00;;;16.40;99.90;;;;;;5079467;28;20059;-70
2022/07/07 03:32:30;;;;;;;7.47;2.08;;;16.30;99.90;;;;;;5079108;28;20058;-69
2022/07/07 03:34:55;;;;;;;5.57;1.55;;;16.40;99.90;;;;;;5079286;28;20048;-70
2022/07/07 03:37:21;;;;;;;7.43;2.22;;;16.40;99.90;;;;;;5079527;28;20559;-70
2022/07/07 03:39:47;;;;;;;7.00;1.70;;;16.40;99.90;;;;;;5097154;28;20071;-70
2022/07/07 03:42:13;;;;;;;6.93;2.15;;;16.30;99.90;;;;;;5078724;28;20048;-70
2022/07/07 03:44:38;;;;;;;7.22;1.60;;;16.30;99.90;;;;;;5079256;28;20036;-69
2022/07/07 03:47:04;;;;;;;5.18;1.67;;;16.30;99.90;;;;;;5096512;28;20067;-70
2022/07/07 03:49:30;;;;;;;3.70;1.80;;;16.30;99.90;;;;;;5079410;28;20062;-69
2022/07/07 03:51:56;;;;;;;4.72;1.67;;;16.30;99.90;;;;;;5096758;28;20056;-69
2022/07/07 03:54:22;;;;;;;3.70;1.52;;;16.20;99.90;;;;;;5078931;28;20052;-70
2022/07/07 03:56:47;;;;;;;3.97;1.58;;;16.30;99.90;;;;;;5096749;28;20527;-69
2022/07/07 03:59:13;;;;;;;4.80;1.60;;;16.20;99.90;;;;;;5043090;28;20128;-68
2022/07/07 04:01:44;;;;;;;7.72;1.73;;;16.20;99.90;;;;;;5059064;28;20054;-70
2022/07/07 04:04:10;;;;;;;7.13;1.60;;;16.20;99.90;;;;;;5059805;28;20040;-69
2022/07/07 04:06:36;;;;;;;5.30;1.80;;;16.20;99.90;;;;;;5069668;28;20094;-69
2022/07/07 04:09:02;;;;;;;7.82;1.60;;;16.20;99.90;;;;;;5057761;28;20449;-69
2022/07/07 04:11:27;;;;;;;6.68;1.40;;;16.10;99.90;;;;;;5070211;28;20148;-69
2022/07/07 04:13:53;;;;;;;7.88;1.58;;;16.10;99.90;;;;;;5096708;28;20044;-69
2022/07/07 04:16:18;;;;;;;7.18;1.90;;;16.10;99.90;;;;;;5096093;28;20093;-71
2022/07/07 04:18:44;;;;;;;4.25;1.48;;;16.00;99.90;;;;;;5078284;28;20058;-70
2022/07/07 04:21:09;;;;;;;10.82;2.47;;;16.00;99.90;;;;;;5078452;28;20055;-69
2022/07/07 04:23:35;;;;;;;8.57;2.05;;;16.00;99.90;;;;;;5078125;28;20480;-69
2022/07/07 04:26:00;;;;;;;4.13;1.23;;;16.00;99.90;;;;;;5078520;28;20519;-69
2022/07/07 04:28:26;;;;;;;13.13;1.52;;;16.00;99.90;;;;;;5078359;28;20086;-69
2022/07/07 04:30:51;;;;;;;8.43;1.95;;;16.10;99.90;;;;;;5078262;28;20047;-70
2022/07/07 04:33:17;;;;;;;4.30;1.00;;;16.00;99.90;;;;;;5086998;28;20373;-69
2022/07/07 04:35:43;;;;;;;7.10;1.55;;;16.00;99.90;;;;;;5075473;28;20423;-69
2022/07/07 04:38:08;;;;;;;9.25;1.65;;;16.00;99.90;;;;;;5058295;28;20073;-70
2022/07/07 04:40:34;;;;;;;9.70;1.38;;;16.00;99.90;;;;;;5058057;28;20062;-70
2022/07/07 04:42:59;;;;;;;9.43;1.95;;;15.90;99.90;;;;;;5075489;28;20044;-69
2022/07/07 04:45:25;;;;;;;5.43;1.40;;;15.90;99.90;;;;;;5058095;28;20060;-70
2022/07/07 04:47:50;;;;;;;8.50;1.92;;;15.90;99.90;;;;;;5058391;28;20058;-69
2022/07/07 04:50:16;;;;;;;4.82;1.63;;;15.90;99.90;;;;;;5057602;28;20091;-70
2022/07/07 04:52:42;;;;;;;9.05;1.92;;;15.90;99.90;;;;;;5075215;28;20053;-70
2022/07/07 04:55:08;;;;;;;12.60;1.60;;;15.90;99.90;;;;;;5057458;28;20044;-70
2022/07/07 04:57:34;;;;;;;6.05;1.40;;;15.90;99.90;;;;;;5057755;28;20121;-69
2022/07/07 05:00:01;;;;;;;6.00;1.40;;;15.90;99.90;;;;;;5075207;28;20052;-68
2022/07/07 05:02:26;;;;;;;7.63;2.28;;;15.90;99.90;;;;;;5058026;28;20067;-68
2022/07/07 05:04:52;;;;;;;5.80;1.80;;;15.90;99.90;;;;;;5058136;28;20048;-69
2022/07/07 05:07:18;;;;;;;4.97;1.75;;;16.00;99.90;;;;;;5075285;28;20074;-69
2022/07/07 05:09:44;;;;;;;6.00;1.52;;;16.10;99.90;;;;;;5074938;28;20041;-69
2022/07/07 05:12:10;;;;;;;6.40;2.10;;;16.20;99.90;;;;;;5058351;28;20202;-69
2022/07/07 05:14:36;;;;;;;4.32;1.02;;;16.30;99.90;;;;;;5075236;28;20110;-69
2022/07/07 05:17:01;;;;;;;5.70;1.20;;;16.40;99.90;;;;;;5057163;28;20480;-71
2022/07/07 05:19:27;;;;;;;4.53;1.17;;;16.50;99.90;;;;;;5057462;28;20059;-70
2022/07/07 05:21:53;;;;;;;5.85;1.50;;;16.50;99.90;;;;;;5057223;28;20401;-69
2022/07/07 05:24:19;;;;;;;3.70;1.15;;;16.50;99.90;;;;;;5057437;28;20045;-70
2022/07/07 05:26:45;;;;;;;6.57;1.25;;;16.40;99.90;;;;;;5074679;28;20040;-70
2022/07/07 05:29:11;;;;;;;7.78;1.70;;;16.30;99.90;;;;;;5074835;28;20445;-70
2022/07/07 05:31:36;;;;;;;7.70;1.40;;;16.20;99.90;;;;;;5057391;28;20048;-70
2022/07/07 05:34:02;;;;;;;10.75;1.85;;;16.20;99.90;;;;;;5080059;28;20063;-69
2022/07/07 05:36:28;;;;;;;9.02;1.73;;;16.00;99.90;;;;;;5077371;28;20048;-70
2022/07/07 05:38:53;;;;;;;3.92;1.20;;;15.90;99.90;;;;;;5077353;28;20051;-69
2022/07/07 05:41:19;;;;;;;10.52;1.58;;;15.90;99.90;;;;;;5094829;28;20036;-69
2022/07/07 05:43:45;;;;;;;7.03;1.52;;;15.80;99.90;;;;;;5077625;28;20422;-70
2022/07/07 05:46:11;;;;;;;5.93;2.08;;;15.80;99.90;;;;;;5078102;28;20044;-70
2022/07/07 05:48:37;;;;;;;6.47;1.70;;;15.80;99.90;;;;;;5081965;28;20549;-69
2022/07/07 05:51:03;;;;;;;5.07;1.83;;;15.90;99.90;;;;;;5057247;28;20036;-70
2022/07/07 05:53:29;;;;;;;6.80;1.80;;;15.80;99.90;;;;;;5038838;28;20068;-70
2022/07/07 05:55:56;;;;;;;8.70;2.08;;;15.80;99.90;;;;;;5037220;28;20084;-70
2022/07/07 05:58:22;;;;;;;7.82;2.03;;;15.80;99.90;;;;;;5054530;28;20047;-70
2022/07/07 06:00:48;;;;;;;4.43;1.58;;;15.90;99.90;;;;;;5054825;28;20049;-70
2022/07/07 06:03:13;;;;;;;7.75;1.83;;;15.90;99.90;;;;;;5037700;28;20119;-70
2022/07/07 06:05:39;;;;;;;13.55;1.60;;;15.90;99.90;;;;;;5054553;28;20052;-70
2022/07/07 06:08:05;;;;;;;6.55;1.55;;;16.00;99.90;;;;;;5036951;28;20366;-70
2022/07/07 06:10:32;;;;;;;8.52;2.03;;;16.10;99.90;;;;;;5054602;28;20049;-70
2022/07/07 06:12:57;;;;;;;9.23;1.73;;;16.10;99.90;;;;;;5020714;28;20053;-70
2022/07/07 06:15:23;;;;;;;9.13;2.00;;;16.20;99.90;;;;;;5036849;28;20365;-70
2022/07/07 06:17:49;;;;;;;10.32;1.38;;;16.20;99.90;;;;;;5037308;28;20049;-70
2022/07/07 06:20:14;;;;;;;6.50;2.30;;;16.30;99.90;;;;;;5037036;28;20059;-70
2022/07/07 06:22:40;;;;;;;9.77;1.75;;;16.30;99.90;;;;;;5036841;28;20064;-70
2022/07/07 06:25:09;;;;;;;9.73;2.85;;;16.40;99.90;;;;;;5036453;28;20381;-70
2022/07/07 06:27:36;;;;;;;11.65;2.85;;;16.60;99.90;;;;;;5037024;28;20082;-69
2022/07/07 06:30:05;;;;;;;7.95;1.83;;;17.80;99.90;;;;;;5037260;28;20458;-70
2022/07/07 06:32:31;;;;;;;9.52;1.90;;;18.80;99.90;;;;;;5045998;28;20414;-70
2022/07/07 06:34:57;;;;;;;6.15;1.20;;;19.00;99.90;;;;;;5060411;28;20072;-73
2022/07/07 06:37:23;;;;;;;4.18;1.35;;;19.00;99.90;;;;;;5060181;28;20044;-70
2022/07/07 06:39:49;;;;;;;7.60;1.60;;;19.40;99.90;;;;;;5060656;28;20048;-71
2022/07/07 06:42:15;;;;;;;3.58;1.15;;;20.20;99.90;;;;;;5060474;28;20122;-71
2022/07/07 06:44:41;;;;;;;7.10;1.42;;;20.80;99.90;;;;;;5060529;28;20453;-70
2022/07/07 06:47:07;;;;;;;7.43;1.58;;;21.20;99.90;;;;;;5052108;28;20044;-71
2022/07/07 06:49:32;;;;;;;7.10;1.58;;;21.40;99.90;;;;;;5040092;28;20049;-70
2022/07/07 06:51:58;;;;;;;6.90;1.45;;;21.30;99.90;;;;;;5045390;28;20044;-70
2022/07/07 06:54:23;;;;;;;4.65;1.23;;;20.60;99.90;;;;;;5060820;28;20189;-70
2022/07/07 06:56:49;;;;;;;3.88;1.10;;;20.10;99.90;;;;;;5078217;28;20059;-70
2022/07/07 06:59:16;;;;;;;7.38;1.50;;;19.60;99.90;;;;;;5098200;28;20149;-70
2022/07/07 07:01:42;;;;;;;4.22;1.02;;;19.20;99.90;;;;;;5079914;28;20048;-70
2022/07/07 07:04:09;;;;;;;4.72;1.27;;;19.00;99.90;;;;;;5069741;28;20053;-70
2022/07/07 07:06:35;;;;;;;3.55;1.55;;;18.90;99.90;;;;;;5074088;28;20048;-70
2022/07/07 07:09:01;;;;;;;12.50;1.38;;;18.80;99.90;;;;;;5059848;28;20040;-70
2022/07/07 07:11:28;;;;;;;3.67;0.60;;;18.50;99.90;;;;;;5060129;28;20059;-70
2022/07/07 07:13:56;;;;;;;2.55;0.65;;;18.10;99.90;;;;;;5059744;28;20055;-70
2022/07/07 07:16:21;;;;;;;2.60;0.77;;;17.80;99.90;;;;;;5059542;28;20510;-70
2022/07/07 07:18:47;;;;;;;1.65;0.70;;;17.70;99.90;;;;;;5043089;28;20056;-70
2022/07/07 07:21:13;;;;;;;2.00;0.65;;;18.00;99.90;;;;;;5076877;28;20048;-70
2022/07/07 07:23:39;;;;;;;2.00;0.70;;;18.80;99.90;;;;;;5077087;28;20056;-70
2022/07/07 07:26:06;;;;;;;2.80;1.08;;;19.70;99.90;;;;;;5059778;28;20048;-70
2022/07/07 07:28:33;;;;;;;2.63;0.80;;;19.70;99.90;;;;;;5076897;28;20484;-71
2022/07/07 07:30:58;;;;;;;2.83;0.85;;;19.50;99.90;;;;;;5059889;28;20078;-70
2022/07/07 07:33:24;;;;;;;4.18;0.90;;;19.30;99.90;;;;;;5059125;28;20512;-71
2022/07/07 07:35:49;;;;;;;2.03;0.68;;;19.20;99.90;;;;;;5059302;28;20108;-70
2022/07/07 07:38:15;;;;;;;2.63;0.95;;;19.50;99.90;;;;;;5059311;28;20357;-70
2022/07/07 07:40:41;;;;;;;8.70;1.27;;;20.10;99.90;;;;;;5059246;28;20055;-70
2022/07/07 07:43:06;;;;;;;4.28;1.00;;;20.50;99.90;;;;;;5077074;28;20044;-70
2022/07/07 07:45:32;;;;;;;1.58;0.43;;;21.00;99.90;;;;;;5075742;28;20048;-70
2022/07/07 07:48:01;;;;;;;2.30;0.52;;;21.10;99.90;;;;;;5076688;28;20116;-71
2022/07/07 07:50:28;;;;;;;1.30;0.50;;;21.70;99.90;;;;;;5059937;28;20052;-71
2022/07/07 07:52:53;;;;;;;3.03;0.52;;;22.30;99.90;;;;;;5045542;28;20053;-71
2022/07/07 07:55:20;;;;;;;2.60;0.60;;;22.40;99.90;;;;;;5039613;28;20134;-70
2022/07/07 07:57:46;;;;;;;3.45;0.60;;;21.80;99.90;;;;;;5022869;28;20400;-70
2022/07/07 08:00:14;;;;;;;3.15;0.60;;;21.10;99.90;;;;;;5056549;28;20056;-70
2022/07/07 08:02:40;;;;;;;3.60;1.52;;;20.30;99.90;;;;;;5038891;28;20369;-70
2022/07/07 08:05:07;;;;;;;3.08;0.80;;;19.70;99.90;;;;;;5039300;28;20055;-70
2022/07/07 08:07:32;;;;;;;6.32;1.33;;;19.20;99.90;;;;;;5039488;28;20088;-70
2022/07/07 08:09:59;;;;;;;4.00;1.33;;;18.80;99.90;;;;;;5039404;28;20076;-70
2022/07/07 08:12:25;;;;;;;4.28;0.82;;;18.40;99.90;;;;;;5038734;28;20053;-69
2022/07/07 08:14:51;;;;;;;2.55;0.75;;;18.30;99.90;;;;;;5038935;28;20449;-69
2022/07/07 08:17:18;;;;;;;3.53;0.90;;;18.40;99.90;;;;;;5021809;28;20045;-70
2022/07/07 08:19:44;;;;;;;4.45;1.15;;;18.60;99.90;;;;;;5033077;28;20048;-69
2022/07/07 08:22:10;;;;;;;9.20;1.08;;;18.80;99.90;;;;;;5039129;28;20378;-70
2022/07/07 08:24:36;;;;;;;4.93;1.20;;;18.90;99.90;;;;;;5038780;28;20424;-70
2022/07/07 08:27:03;;;;;;;2.30;0.60;;;18.90;99.90;;;;;;5038196;28;20124;-70
2022/07/07 08:29:28;;;;;;;5.25;0.88;;;18.80;99.90;;;;;;5038410;28;20114;-70
2022/07/07 08:31:54;;;;;;;6.22;1.15;;;18.70;99.90;;;;;;5055249;28;20461;-70
2022/07/07 08:34:20;;;;;;;5.53;1.42;;;18.80;99.90;;;;;;5053249;28;20037;-69
2022/07/07 08:36:45;;;;;;;2.58;0.68;;;18.90;99.90;;;;;;5058231;28;20059;-70
2022/07/07 08:39:11;;;;;;;2.65;0.93;;;18.90;99.90;;;;;;5057769;28;20048;-70
2022/07/07 08:41:37;;;;;;;5.00;1.23;;;18.90;99.90;;;;;;5057846;28;20052;-69
2022/07/07 08:44:03;;;;;;;3.90;1.08;;;18.70;99.90;;;;;;5058535;28;20054;-70
2022/07/07 08:46:29;;;;;;;5.60;1.30;;;18.70;99.90;;;;;;5057863;28;20044;-71
2022/07/07 08:48:54;;;;;;;2.72;0.77;;;18.70;99.90;;;;;;5054359;28;20047;-70
2022/07/07 08:51:21;;;;;;;3.85;0.90;;;18.70;99.90;;;;;;5055400;28;20120;-70
2022/07/07 08:53:47;;;;;;;3.65;1.00;;;18.70;99.90;;;;;;5058107;28;20092;-70
2022/07/07 08:56:15;;;;;;;6.07;1.73;;;18.70;99.90;;;;;;5057641;28;20076;-70
2022/07/07 08:58:42;;;;;;;16.50;1.20;;;18.80;99.90;;;;;;5057835;28;20120;-69
2022/07/07 09:01:08;;;;;;;5.78;1.63;;;18.90;99.90;;;;;;5057739;28;20048;-70
2022/07/07 09:03:34;;;;;;;5.10;1.27;;;19.00;99.90;;;;;;5065831;28;20043;-71
2022/07/07 09:06:01;;;;;;;8.40;1.73;;;18.90;99.90;;;;;;5078456;28;20428;-70
2022/07/07 09:08:29;;;;;;;6.60;2.10;;;18.90;99.90;;;;;;5095720;28;20044;-69
2022/07/07 09:10:54;;;;;;;4.95;1.10;;;19.10;99.90;;;;;;5077963;28;20052;-70
2022/07/07 09:13:33;;;;;;;5.15;1.30;;;19.50;99.90;;;;;;5096200;28;20051;-70
2022/07/07 09:16:02;;;;;;;7.53;1.95;;;19.50;99.90;;;;;;5077300;28;20460;-70
2022/07/07 09:18:37;;;;;;;6.40;1.50;;;19.40;99.90;;;;;;5073398;28;20477;-69
2022/07/07 09:21:05;;;;;;;5.82;1.65;;;19.30;99.90;;;;;;5057440;28;20052;-70
2022/07/07 09:23:31;;;;;;;4.43;0.82;;;19.10;99.90;;;;;;5074886;28;20368;-70
2022/07/07 09:25:58;;;;;;;5.20;1.52;;;18.80;99.90;;;;;;5057335;28;20067;-70
2022/07/07 09:28:26;;;;;;;3.53;1.27;;;18.50;99.90;;;;;;5074677;28;20059;-70
2022/07/07 09:30:52;;;;;;;4.68;0.80;;;18.30;99.90;;;;;;5057256;28;20052;-70
2022/07/07 09:33:23;;;;;;;3.00;1.15;;;18.30;99.90;;;;;;5074039;28;20043;-70
2022/07/07 09:38:37;;;;;;;4.05;1.00;;;18.80;99.90;;;;;;5057068;28;20063;-70
2022/07/07 09:41:05;;;;;;;4.78;1.33;;;19.20;99.90;;;;;;5057285;28;20091;-70
2022/07/07 09:43:43;;;;;;;3.88;1.02;;;19.20;99.90;;;;;;5057492;28;20468;-70
2022/07/07 09:46:15;;;;;;;4.45;0.88;;;19.30;99.90;;;;;;5058081;28;20072;-70
2022/07/07 09:48:50;;;;;;;2.75;0.95;;;19.40;99.90;;;;;;5068237;28;20051;-70
2022/07/07 09:51:24;;;;;;;5.75;1.42;;;19.50;99.90;;;;;;5074634;28;20085;-70
2022/07/07 09:54:10;;;;;;;5.18;0.95;;;19.60;99.90;;;;;;5057106;28;20057;-69
2022/07/07 09:56:44;;;;;;;6.63;1.13;;;19.60;99.90;;;;;;5074749;28;20084;-72
2022/07/07 09:59:15;;;;;;;5.15;1.50;;;19.30;99.90;;;;;;5057289;28;20078;-70
2022/07/07 10:01:43;;;;;;;4.72;1.13;;;18.80;99.90;;;;;;5074544;28;20034;-70
2022/07/07 10:04:11;;;;;;;6.97;1.15;;;18.40;99.90;;;;;;5091173;28;20040;-70
2022/07/07 10:06:39;;;;;;;7.53;1.65;;;18.00;99.90;;;;;;5077328;28;20180;-70
2022/07/07 10:09:10;;;;;;;6.20;1.30;;;17.90;99.90;;;;;;5080319;28;20048;-70
2022/07/07 10:11:43;;;;;;;9.15;1.52;;;17.80;99.90;;;;;;5081232;28;20055;-70
2022/07/07 10:14:16;;;;;;;5.18;1.00;;;18.00;99.90;;;;;;5080577;28;20048;-69
2022/07/07 10:16:43;;;;;;;3.70;0.80;;;18.10;99.90;;;;;;5080893;28;20357;-69
2022/07/07 10:19:12;;;;;;;7.57;1.20;;;18.30;99.90;;;;;;5098374;28;20356;-70
2022/07/07 10:21:41;;;;;;;3.45;1.05;;;18.50;99.90;;;;;;5080595;28;20484;-70
2022/07/07 10:24:07;;;;;;;8.60;1.70;;;18.80;99.90;;;;;;5098693;28;20046;-71
2022/07/07 10:26:56;;;;;;;4.63;1.10;;;19.00;99.90;;;;;;5080659;28;20051;-70
2022/07/07 10:29:48;;;;;;;3.35;0.80;;;18.80;99.90;;;;;;5098341;28;20054;-70
2022/07/07 10:32:49;;;;;;;5.22;1.65;;;18.70;99.90;;;;;;5076922;28;20127;-70
2022/07/07 10:35:16;;;;;;;6.72;1.30;;;18.90;99.90;;;;;;5053696;28;20461;-70
2022/07/07 10:37:42;;;;;;;5.55;1.27;;;19.10;99.90;;;;;;5060143;28;20090;-70
2022/07/07 10:40:12;;;;;;;13.80;2.08;;;19.20;99.90;;;;;;5060933;28;20103;-71
2022/07/07 10:42:38;;;;;;;8.68;1.27;;;19.10;99.90;;;;;;5060374;28;20091;-70
2022/07/07 10:45:05;;;;;;;7.00;1.55;;;18.60;99.90;;;;;;5077997;28;20475;-69
2022/07/07 10:47:36;;;;;;;8.38;1.85;;;18.20;99.90;;;;;;5077541;28;20115;-70
2022/07/07 10:50:02;;;;;;;14.98;1.65;;;17.70;99.90;;;;;;5059877;28;20063;-69
2022/07/07 10:52:41;;;;;;;9.07;2.03;;;17.50;99.90;;;;;;5059831;28;20063;-70
2022/07/07 10:55:08;;;;;;;9.27;1.98;;;17.60;99.90;;;;;;5064460;28;20170;-71
2022/07/07 10:57:41;;;;;;;11.00;1.85;;;17.90;99.90;;;;;;5097607;28;20054;-70
2022/07/07 11:00:10;;;;;;;7.18;2.08;;;18.10;99.90;;;;;;5097844;28;20063;-70
2022/07/07 11:02:52;;;;;;;7.05;1.73;;;18.20;99.90;;;;;;5097847;28;20127;-70
2022/07/07 11:05:17;;;;;;;11.48;2.92;;;18.20;99.90;;;;;;5062896;28;20059;-70
2022/07/07 11:08:07;;;;;;;10.27;3.05;;;18.00;99.90;;;;;;5080184;28;20341;-70
2022/07/07 11:10:44;;;;;;;9.88;2.47;;;17.70;99.90;;;;;;5079566;28;20583;-70
2022/07/07 11:13:16;;;;;;;7.45;2.10;;;17.70;99.90;;;;;;5066298;28;20049;-70
2022/07/07 11:15:45;;;;;;;12.73;2.63;;;17.70;99.90;;;;;;5077527;28;20099;-71
2022/07/07 11:18:22;;;;;;;9.02;2.35;;;17.90;99.90;;;;;;5059102;28;20449;-70
2022/07/07 11:20:51;;;;;;;10.45;1.98;;;18.00;99.90;;;;;;5059916;28;20350;-70
2022/07/07 11:23:16;;;;;;;9.25;2.28;;;18.00;99.90;;;;;;5059678;28;20107;-70
2022/07/07 11:25:42;;;;;;;8.63;1.55;;;18.00;99.90;;;;;;5068891;28;20083;-71
2022/07/07 11:28:09;;;;;;;16.02;2.15;;;17.90;99.90;;;;;;5079837;28;20047;-70
2022/07/07 11:30:36;;;;;;;8.90;2.10;;;18.00;99.90;;;;;;5095638;28;20040;-72
2022/07/07 11:33:02;;;;;;;7.20;1.60;;;17.90;99.90;;;;;;5096909;28;20043;-70
2022/07/07 11:35:36;;;;;;;10.10;1.88;;;17.90;99.90;;;;;;5079452;28;20048;-70
2022/07/07 11:38:07;;;;;;;7.70;2.00;;;17.80;99.90;;;;;;5079241;28;20533;-71
2022/07/07 11:40:33;;;;;;;13.00;2.88;;;17.80;99.90;;;;;;5097125;28;20040;-71
2022/07/07 11:43:01;;;;;;;10.13;1.80;;;17.80;99.90;;;;;;5079450;28;20059;-70
2022/07/07 11:45:28;;;;;;;9.73;2.10;;;17.70;99.90;;;;;;5096990;28;20071;-70
2022/07/07 11:48:02;;;;;;;11.57;2.67;;;17.90;99.90;;;;;;5075158;28;20507;-70
2022/07/07 11:50:33;;;;;;;8.07;2.10;;;18.20;99.90;;;;;;5077004;28;20071;-70
2022/07/07 11:53:02;;;;;;;7.45;1.40;;;18.40;99.90;;;;;;5058538;28;20483;-70
2022/07/07 11:55:28;;;;;;;10.55;1.88;;;18.60;99.90;;;;;;5076894;28;20036;-71
2022/07/07 11:57:57;;;;;;;9.05;1.70;;;18.80;99.90;;;;;;5058940;28;20078;-71
2022/07/07 12:00:25;;;;;;;8.32;1.70;;;18.90;99.90;;;;;;5066004;28;20044;-71
2022/07/07 12:02:53;;;;;;;7.95;1.48;;;18.90;99.90;;;;;;5097024;28;20043;-71
2022/07/07 12:05:27;;;;;;;6.05;1.92;;;18.90;99.90;;;;;;5079004;28;20036;-71
2022/07/07 12:07:55;;;;;;;6.45;1.63;;;19.00;99.90;;;;;;5096701;28;20414;-71
2022/07/07 12:10:30;;;;;;;6.78;1.92;;;19.10;99.90;;;;;;5078670;28;20083;-71
2022/07/07 12:13:02;;;;;;;8.45;1.83;;;19.20;99.90;;;;;;5079303;28;20056;-72
2022/07/07 12:15:36;;;;;;;10.68;2.47;;;19.30;99.90;;;;;;5068603;28;20044;-71
2022/07/07 12:18:03;;;;;;;8.15;1.95;;;19.60;99.90;;;;;;5058270;28;20056;-71
2022/07/07 12:20:29;;;;;;;4.82;1.60;;;19.70;99.90;;;;;;5058301;28;20056;-71
2022/07/07 12:22:58;;;;;;;7.22;1.75;;;19.80;99.90;;;;;;5058375;28;20044;-71
2022/07/07 12:25:28;;;;;;;4.80;1.30;;;19.80;99.90;;;;;;5058385;28;20064;-71
2022/07/07 12:27:56;;;;;;;6.18;1.50;;;19.60;99.90;;;;;;5058418;28;20071;-70
2022/07/07 12:30:24;;;;;;;11.90;2.15;;;19.50;99.90;;;;;;5067858;28;20059;-71
2022/07/07 12:32:49;;;;;;;7.90;2.30;;;19.30;99.90;;;;;;5078100;28;20043;-71
2022/07/07 12:35:37;;;;;;;9.82;1.60;;;19.00;99.90;;;;;;5078056;28;20051;-71
2022/07/07 12:38:04;;;;;;;7.70;1.45;;;18.70;99.90;;;;;;5078531;28;20052;-71
2022/07/07 12:40:32;;;;;;;4.38;1.70;;;18.60;99.90;;;;;;5078161;28;20391;-71
2022/07/07 12:43:04;;;;;;;9.20;2.15;;;18.70;99.90;;;;;;5078159;28;20060;-71
2022/07/07 12:45:30;;;;;;;7.47;2.28;;;18.90;99.90;;;;;;5073370;28;20052;-71
2022/07/07 12:47:56;;;;;;;6.50;1.63;;;19.00;99.90;;;;;;5075281;28;20048;-71
2022/07/07 12:50:23;;;;;;;12.95;2.10;;;19.00;99.90;;;;;;5075448;28;20047;-71